Time;durP1;ratioP1;P1;durP2;ratioP2;P2;SDS_P1;SDS_P2;PMS_P1;PMS_P2;Temp;Humidity;BMP_temperature;BMP_pressure;BME280_temperature;BME280_humidity;BME280_pressure;Samples;Min_cycle;Max_cycle;Signal;HPM_P1;HPM_P2
2022/07/28 13:13:08;;;;;;;1.50;1.30;;;;;26.50;101226.00;;;;5076666;27;21033;-70
2022/07/28 13:16:11;;;;;;;3.10;1.40;;;;;26.60;101217.00;;;;5041320;28;20236;-69
2022/07/28 13:19:02;;;;;;;3.10;1.70;;;;;26.70;101218.00;;;;5030782;28;20728;-70
2022/07/28 13:21:54;;;;;;;5.67;1.50;;;;;26.60;101216.00;;;;5037874;28;20252;-68
2022/07/28 13:24:45;;;;;;;3.13;1.50;;;;;26.70;101216.00;;;;5040863;28;20228;-71
2022/07/28 13:27:33;;;;;;;2.25;1.38;;;;;26.40;101207.00;;;;5038423;28;20229;-72
2022/07/28 13:30:21;;;;;;;2.75;1.48;;;;;26.50;101217.00;;;;5033831;28;20232;-70
2022/07/28 13:33:07;;;;;;;3.42;1.45;;;;;26.40;101208.00;;;;5041664;28;20705;-71
2022/07/28 13:35:59;;;;;;;2.95;1.60;;;;;27.10;101212.00;;;;5041097;28;20237;-70
2022/07/28 13:38:45;;;;;;;2.40;1.40;;;;;26.80;101195.00;;;;5042500;28;20232;-71
2022/07/28 13:41:32;;;;;;;3.55;1.58;;;;;26.60;101199.00;;;;5041952;28;20871;-69
2022/07/28 13:44:38;;;;;;;3.17;1.50;;;;;27.00;101205.00;;;;5037850;28;20284;-71
2022/07/28 13:47:26;;;;;;;2.25;1.45;;;;;27.20;101203.00;;;;5042068;28;20870;-70
2022/07/28 13:50:21;;;;;;;2.80;1.40;;;;;27.30;101195.00;;;;5037008;28;20283;-71
2022/07/28 13:53:27;;;;;;;1.90;1.45;;;;;27.20;101193.00;;;;5039812;28;20237;-72
2022/07/28 13:56:13;;;;;;;3.50;1.40;;;;;26.60;101179.00;;;;5039428;28;20299;-70
2022/07/28 13:59:00;;;;;;;4.32;1.50;;;;;27.40;101185.00;;;;5043895;28;20264;-68
2022/07/28 14:01:47;;;;;;;2.05;1.40;;;;;27.50;101185.00;;;;5040722;28;20228;-69
2022/07/28 14:04:36;;;;;;;4.32;1.60;;;;;27.70;101182.00;;;;5041253;28;20371;-66
2022/07/28 14:07:24;;;;;;;3.85;1.95;;;;;27.70;101187.00;;;;5042158;28;20244;-71
2022/07/28 14:10:11;;;;;;;3.25;1.58;;;;;27.70;101181.00;;;;5041323;28;20298;-67
2022/07/28 14:12:58;;;;;;;1.83;1.70;;;;;27.60;101180.00;;;;5039926;28;20240;-69
2022/07/28 14:15:45;;;;;;;6.00;1.50;;;;;28.00;101174.00;;;;5040834;28;20287;-66
2022/07/28 14:18:32;;;;;;;8.43;1.63;;;;;27.20;101172.00;;;;5034365;28;20240;-68
2022/07/28 14:21:19;;;;;;;7.13;1.77;;;;;27.80;101176.00;;;;5040102;28;20587;-67
2022/07/28 14:24:06;;;;;;;2.75;1.73;;;;;27.70;101165.00;;;;5029833;28;20234;-70
2022/07/28 14:26:52;;;;;;;4.25;1.60;;;;;28.20;101179.00;;;;5025859;28;20250;-70
2022/07/28 14:29:38;;;;;;;2.40;1.30;;;;;28.10;101173.00;;;;5027539;28;20253;-70
2022/07/28 14:32:25;;;;;;;3.15;1.33;;;;;27.90;101176.00;;;;5026624;28;20241;-67
2022/07/28 14:35:11;;;;;;;3.13;1.40;;;;;27.30;101174.00;;;;5026529;28;20678;-69
2022/07/28 14:37:59;;;;;;;3.85;1.58;;;;;26.80;101177.00;;;;5026732;28;20718;-68
2022/07/28 14:41:05;;;;;;;5.38;1.80;;;;;26.80;101176.00;;;;5019725;28;20249;-68
2022/07/28 14:43:52;;;;;;;2.30;1.50;;;;;26.90;101168.00;;;;5024158;28;20236;-69
2022/07/28 14:46:38;;;;;;;4.95;1.88;;;;;26.60;101168.00;;;;5020571;28;20229;-69
2022/07/28 14:49:25;;;;;;;3.40;1.48;;;;;27.30;101167.00;;;;5022893;28;20271;-66
2022/07/28 14:52:11;;;;;;;2.05;1.35;;;;;27.10;101171.00;;;;5025622;28;20303;-70
2022/07/28 14:54:59;;;;;;;1.90;1.33;;;;;26.70;101163.00;;;;5026404;28;20233;-69
2022/07/28 14:57:46;;;;;;;3.85;1.40;;;;;26.60;101160.00;;;;5021295;28;20236;-69
2022/07/28 15:00:40;;;;;;;3.05;1.52;;;;;27.50;101162.00;;;;5024930;28;20236;-70
2022/07/28 15:03:28;;;;;;;5.07;2.33;;;;;28.00;101152.00;;;;5027592;28;20337;-67
2022/07/28 15:06:21;;;;;;;3.80;1.80;;;;;28.60;101153.00;;;;5026623;28;20245;-67
2022/07/28 15:09:08;;;;;;;4.00;1.50;;;;;28.80;101150.00;;;;5026366;28;20238;-71
2022/07/28 15:11:55;;;;;;;3.72;1.40;;;;;28.10;101139.00;;;;5032410;28;20233;-67
2022/07/28 15:14:42;;;;;;;2.90;1.48;;;;;27.60;101147.00;;;;5028358;28;20626;-70
2022/07/28 15:17:29;;;;;;;1.52;1.33;;;;;27.00;101148.00;;;;5026160;28;20229;-70
2022/07/28 15:20:15;;;;;;;3.03;1.52;;;;;26.70;101155.00;;;;5025735;28;20241;-67
2022/07/28 15:23:01;;;;;;;3.47;1.50;;;;;26.70;101154.00;;;;5023362;28;20233;-70
2022/07/28 15:25:47;;;;;;;2.55;1.60;;;;;27.30;101147.00;;;;5025175;28;21534;-70
2022/07/28 15:28:35;;;;;;;4.30;1.65;;;;;27.20;101158.00;;;;5026807;28;20869;-71
2022/07/28 15:31:24;;;;;;;3.67;2.00;;;;;28.00;101152.00;;;;5025190;28;20235;-68
2022/07/28 15:34:11;;;;;;;4.93;1.70;;;;;29.20;101159.00;;;;5026611;28;20319;-68
2022/07/28 15:36:59;;;;;;;1.85;1.50;;;;;30.50;101145.00;;;;5022776;28;20757;-70
2022/07/28 15:39:46;;;;;;;2.80;1.50;;;;;31.30;101145.00;;;;5025676;28;20242;-69
2022/07/28 15:42:32;;;;;;;3.40;1.48;;;;;30.50;101158.00;;;;5028124;28;20717;-70
2022/07/28 15:45:19;;;;;;;5.07;1.50;;;;;28.80;101152.00;;;;5024443;28;20806;-70
2022/07/28 15:48:06;;;;;;;2.35;1.60;;;;;28.30;101148.00;;;;5025796;28;20221;-69
2022/07/28 15:50:53;;;;;;;4.32;1.67;;;;;28.20;101142.00;;;;5020350;28;20627;-71
2022/07/28 15:53:39;;;;;;;5.05;1.70;;;;;28.10;101146.00;;;;5022760;28;20245;-69
2022/07/28 15:56:27;;;;;;;2.42;1.52;;;;;27.80;101147.00;;;;5026012;28;20661;-69
2022/07/28 15:59:13;;;;;;;3.95;1.58;;;;;28.00;101148.00;;;;5023604;28;20323;-70
2022/07/28 16:02:01;;;;;;;2.35;1.48;;;;;27.80;101149.00;;;;5024373;28;20730;-69
2022/07/28 16:04:47;;;;;;;3.78;1.45;;;;;27.50;101143.00;;;;5023159;28;20232;-67
2022/07/28 16:07:39;;;;;;;3.60;1.42;;;;;26.90;101144.00;;;;5025658;28;20308;-69
2022/07/28 16:10:30;;;;;;;4.75;1.50;;;;;26.30;101158.00;;;;5027549;28;20225;-66
2022/07/28 16:13:16;;;;;;;3.08;1.55;;;;;26.20;101147.00;;;;5024010;28;20323;-69
2022/07/28 16:16:21;;;;;;;3.17;1.60;;;;;26.00;101136.00;;;;5023955;28;20229;-70
2022/07/28 16:19:09;;;;;;;4.78;1.55;;;;;25.90;101147.00;;;;5027805;28;20360;-70
2022/07/28 16:22:16;;;;;;;2.38;1.70;;;;;25.60;101144.00;;;;5021117;28;20233;-68
2022/07/28 16:25:02;;;;;;;4.07;1.63;;;;;25.30;101133.00;;;;5025235;28;20291;-71
2022/07/28 16:27:49;;;;;;;2.87;1.70;;;;;25.40;101140.00;;;;5015242;28;20228;-68
2022/07/28 16:30:36;;;;;;;2.73;1.60;;;;;25.30;101135.00;;;;5016799;28;21014;-67
2022/07/28 16:33:22;;;;;;;6.40;1.77;;;;;25.10;101131.00;;;;5022409;28;20240;-69
2022/07/28 16:36:09;;;;;;;3.00;1.50;;;;;25.30;101134.00;;;;5021936;28;20237;-71
2022/07/28 16:38:56;;;;;;;4.87;1.70;;;;;25.10;101128.00;;;;5028080;28;20257;-70
2022/07/28 16:41:43;;;;;;;2.13;1.53;;;;;25.40;101131.00;;;;5017448;28;20248;-69
2022/07/28 16:44:32;;;;;;;3.73;1.50;;;;;25.30;101133.00;;;;5023118;28;20233;-69
2022/07/28 16:47:19;;;;;;;3.80;1.60;;;;;25.20;101132.00;;;;5022411;28;20233;-69
2022/07/28 16:50:06;;;;;;;3.03;1.80;;;;;25.00;101126.00;;;;5019281;28;20772;-69
2022/07/28 16:52:55;;;;;;;2.77;1.90;;;;;25.10;101129.00;;;;5018937;28;20762;-68
2022/07/28 16:55:41;;;;;;;1.80;1.70;;;;;25.00;101130.00;;;;5022070;28;20233;-68
2022/07/28 16:58:28;;;;;;;1.60;1.50;;;;;25.00;101118.00;;;;5021920;28;20222;-67
2022/07/28 17:01:15;;;;;;;3.57;1.90;;;;;25.00;101123.00;;;;5020525;28;20225;-68
2022/07/28 17:04:05;;;;;;;5.00;1.63;;;;;24.70;101125.00;;;;5022459;28;20237;-67
2022/07/28 17:06:51;;;;;;;3.83;1.60;;;;;24.70;101130.00;;;;5017358;28;20774;-68
2022/07/28 17:09:39;;;;;;;4.37;1.80;;;;;24.60;101120.00;;;;5017570;28;20329;-68
2022/07/28 17:12:25;;;;;;;3.57;1.40;;;;;24.60;101126.00;;;;5018926;28;20745;-67
2022/07/28 17:15:11;;;;;;;4.07;1.63;;;;;24.70;101122.00;;;;5022551;28;20233;-66
2022/07/28 17:18:08;;;;;;;1.60;1.50;;;;;24.60;101142.00;;;;5022673;28;20233;-67
2022/07/28 17:20:57;;;;;;;2.50;1.67;;;;;24.60;101128.00;;;;5020300;28;20234;-67
2022/07/28 17:23:43;;;;;;;2.67;1.33;;;;;24.60;101127.00;;;;5018540;28;20401;-68
2022/07/28 17:26:31;;;;;;;3.43;1.40;;;;;24.60;101131.00;;;;5022549;28;20234;-68
2022/07/28 17:29:38;;;;;;;2.30;1.50;;;;;24.60;101129.00;;;;5019823;28;20237;-71
2022/07/28 17:32:24;;;;;;;3.03;1.60;;;;;24.70;101128.00;;;;5027814;28;20284;-69
2022/07/28 17:35:11;;;;;;;5.33;1.80;;;;;24.60;101122.00;;;;5027079;28;20642;-68
2022/07/28 17:38:20;;;;;;;4.27;2.00;;;;;24.60;101114.00;;;;5023213;28;20300;-68
2022/07/28 17:41:07;;;;;;;5.40;1.80;;;;;24.40;101123.00;;;;5022741;28;20229;-68
2022/07/28 17:43:55;;;;;;;2.47;1.70;;;;;24.40;101128.00;;;;5028206;28;20267;-69
2022/07/28 17:46:42;;;;;;;8.90;2.20;;;;;24.30;101116.00;;;;5023358;28;20726;-70
2022/07/28 17:49:29;;;;;;;8.93;2.33;;;;;24.20;101110.00;;;;5020626;28;20225;-68
2022/07/28 17:52:15;;;;;;;4.33;1.90;;;;;24.10;101117.00;;;;5020396;28;20236;-67
2022/07/28 17:58:12;;;;;;;8.67;2.53;;;;;24.00;101126.00;;;;5020031;28;20276;-67
2022/07/28 18:01:02;;;;;;;19.43;4.30;;;;;24.00;101123.00;;;;5024922;28;20806;-69
2022/07/28 18:03:56;;;;;;;14.40;3.17;;;;;23.90;101121.00;;;;5024883;28;20241;-66
2022/07/28 18:06:46;;;;;;;2.57;1.70;;;;;23.90;101123.00;;;;5019769;28;20237;-68
2022/07/28 18:09:32;;;;;;;4.17;1.40;;;;;23.80;101121.00;;;;5024595;28;20229;-70
2022/07/28 18:12:19;;;;;;;3.57;2.00;;;;;23.80;101115.00;;;;5024779;28;20598;-70
2022/07/28 18:15:06;;;;;;;2.30;1.60;;;;;23.70;101119.00;;;;5022401;28;20249;-72
2022/07/28 18:17:54;;;;;;;4.93;2.00;;;;;23.70;101116.00;;;;5024570;28;20277;-68
2022/07/28 18:20:41;;;;;;;8.57;3.30;;;;;23.60;101118.00;;;;5023022;28;20252;-68
2022/07/28 18:23:28;;;;;;;12.23;3.50;;;;;23.40;101115.00;;;;5024953;28;20252;-69
2022/07/28 18:26:14;;;;;;;10.90;2.23;;;;;23.50;101103.00;;;;5025288;28;20233;-68
2022/07/28 18:29:00;;;;;;;5.57;1.93;;;;;23.50;101106.00;;;;5022976;28;20268;-68
2022/07/28 18:31:46;;;;;;;5.70;1.77;;;;;23.30;101108.00;;;;5025013;28;20685;-69
2022/07/28 18:34:34;;;;;;;3.63;1.80;;;;;23.30;101119.00;;;;5024335;28;20245;-68
2022/07/28 18:37:21;;;;;;;13.00;4.13;;;;;23.10;101111.00;;;;5024686;28;20701;-66
2022/07/28 18:40:08;;;;;;;6.53;1.90;;;;;23.10;101109.00;;;;5026429;28;20263;-67
2022/07/28 18:42:55;;;;;;;2.33;1.40;;;;;23.10;101110.00;;;;5024626;28;20368;-65
2022/07/28 18:45:42;;;;;;;6.03;1.70;;;;;23.20;101111.00;;;;5025854;28;20974;-70
2022/07/28 18:48:29;;;;;;;6.33;1.60;;;;;23.10;101108.00;;;;5024427;28;20229;-68
2022/07/28 18:51:16;;;;;;;3.87;1.40;;;;;23.00;101117.00;;;;5024629;28;20231;-67
2022/07/28 18:54:03;;;;;;;3.53;2.50;;;;;23.00;101116.00;;;;5024173;28;20332;-66
2022/07/28 18:56:50;;;;;;;1.57;1.40;;;;;23.00;101107.00;;;;5023780;28;20618;-66
2022/07/28 18:59:36;;;;;;;2.60;1.47;;;;;23.00;101109.00;;;;5022327;28;20224;-70
2022/07/28 19:02:29;;;;;;;8.10;1.67;;;;;23.00;101099.00;;;;5026239;28;21002;-68
2022/07/28 19:05:15;;;;;;;5.17;1.90;;;;;22.90;101108.00;;;;5021349;28;20240;-69
2022/07/28 19:08:03;;;;;;;4.57;1.80;;;;;22.80;101110.00;;;;5022587;28;20295;-70
2022/07/28 19:10:50;;;;;;;2.33;1.50;;;;;22.80;101105.00;;;;5016288;28;20237;-69
2022/07/28 19:13:36;;;;;;;9.30;1.80;;;;;22.80;101113.00;;;;5024134;28;20241;-69
2022/07/28 19:16:23;;;;;;;2.50;1.43;;;;;22.70;101104.00;;;;5022487;28;20232;-70
2022/07/28 19:19:09;;;;;;;3.43;1.60;;;;;22.60;101106.00;;;;5026358;28;20898;-69
2022/07/28 19:21:56;;;;;;;2.50;1.60;;;;;22.70;101113.00;;;;5024050;28;20256;-68
2022/07/28 19:24:44;;;;;;;5.33;1.70;;;;;22.60;101107.00;;;;5022535;28;20237;-70
2022/07/28 19:27:32;;;;;;;2.63;1.60;;;;;22.60;101122.00;;;;5022797;28;20284;-69
2022/07/28 19:30:19;;;;;;;5.40;1.97;;;;;22.80;101120.00;;;;5023947;28;20282;-69
2022/07/28 19:33:05;;;;;;;1.50;1.40;;;;;22.50;101121.00;;;;5022932;28;20240;-70
2022/07/28 19:35:52;;;;;;;1.70;1.57;;;;;22.50;101122.00;;;;5022236;28;20617;-69
2022/07/28 19:38:39;;;;;;;6.90;1.60;;;;;22.50;101124.00;;;;5021542;28;20345;-70
2022/07/28 19:41:30;;;;;;;3.53;1.47;;;;;22.50;101130.00;;;;5020913;28;20228;-68
2022/07/28 19:44:16;;;;;;;1.77;1.60;;;;;22.50;101134.00;;;;5022284;28;20268;-71
2022/07/28 19:47:03;;;;;;;3.67;1.83;;;;;22.50;101131.00;;;;5024106;28;20724;-68
2022/07/28 19:49:49;;;;;;;4.03;2.20;;;;;22.40;101133.00;;;;5022515;28;20334;-73
2022/07/28 19:52:35;;;;;;;2.77;1.87;;;;;22.40;101131.00;;;;5022964;28;20272;-70
2022/07/28 19:55:23;;;;;;;2.97;1.70;;;;;22.40;101143.00;;;;5013027;28;20234;-69
2022/07/28 19:58:10;;;;;;;4.57;1.70;;;;;22.40;101140.00;;;;5022223;28;20299;-70
2022/07/28 20:00:57;;;;;;;6.70;1.90;;;;;22.40;101144.00;;;;5017699;28;20236;-69
2022/07/28 20:03:43;;;;;;;2.73;1.70;;;;;22.40;101141.00;;;;5026940;28;20285;-70
2022/07/28 20:06:52;;;;;;;4.63;1.83;;;;;22.30;101149.00;;;;5025065;28;20825;-70
2022/07/28 20:09:41;;;;;;;3.23;1.50;;;;;22.40;101164.00;;;;5022751;28;20394;-69
2022/07/28 20:12:28;;;;;;;3.80;1.63;;;;;22.30;101157.00;;;;5021862;28;20729;-70
2022/07/28 20:15:22;;;;;;;7.93;1.80;;;;;22.10;101150.00;;;;5022342;28;20252;-68
2022/07/28 20:18:09;;;;;;;3.87;1.67;;;;;22.10;101159.00;;;;5022372;28;20735;-69
2022/07/28 20:20:55;;;;;;;7.30;1.80;;;;;22.10;101156.00;;;;5018825;28;20725;-66
2022/07/28 20:23:41;;;;;;;2.83;1.70;;;;;22.10;101164.00;;;;5023140;28;20242;-70
2022/07/28 20:26:27;;;;;;;5.10;1.90;;;;;22.00;101160.00;;;;5022494;28;20808;-69
2022/07/28 20:29:14;;;;;;;2.97;1.90;;;;;22.00;101163.00;;;;5023497;28;20235;-69
2022/07/28 20:32:01;;;;;;;5.57;1.70;;;;;22.00;101162.00;;;;5021916;28;20233;-70
2022/07/28 20:34:52;;;;;;;2.33;1.83;;;;;21.80;101165.00;;;;5013724;28;20257;-69
2022/07/28 20:37:38;;;;;;;3.80;1.60;;;;;21.90;101165.00;;;;5021036;28;20804;-68
2022/07/28 20:40:24;;;;;;;2.33;1.70;;;;;21.90;101175.00;;;;5009003;28;20606;-69
2022/07/28 20:43:11;;;;;;;2.97;1.73;;;;;21.90;101171.00;;;;5016946;28;20232;-69
2022/07/28 20:45:57;;;;;;;2.93;1.80;;;;;21.80;101169.00;;;;5023465;28;20899;-70
2022/07/28 20:48:45;;;;;;;3.47;1.90;;;;;21.90;101164.00;;;;5018137;28;20234;-71
2022/07/28 20:51:32;;;;;;;7.37;1.77;;;;;21.90;101162.00;;;;5021661;28;20375;-70
2022/07/28 20:54:19;;;;;;;5.80;1.93;;;;;21.70;101164.00;;;;5023297;28;20232;-70
2022/07/28 20:57:06;;;;;;;1.63;1.53;;;;;21.70;101176.00;;;;5021886;28;20226;-70
2022/07/28 20:59:52;;;;;;;5.40;1.80;;;;;21.70;101173.00;;;;5016248;28;20480;-69
2022/07/28 21:02:38;;;;;;;2.97;1.60;;;;;21.70;101175.00;;;;5021615;28;20280;-69
2022/07/28 21:05:26;;;;;;;3.80;1.57;;;;;21.60;101174.00;;;;5017388;28;20743;-70
2022/07/28 21:08:21;;;;;;;10.10;1.93;;;;;21.60;101176.00;;;;5020899;28;20229;-71
2022/07/28 21:11:08;;;;;;;3.17;1.80;;;;;21.60;101178.00;;;;5016067;28;20235;-72
2022/07/28 21:13:55;;;;;;;2.77;1.50;;;;;21.70;101177.00;;;;5010216;28;20714;-70
2022/07/28 21:16:42;;;;;;;2.43;1.80;;;;;21.60;101180.00;;;;5018546;28;20240;-72
2022/07/28 21:19:28;;;;;;;5.50;1.70;;;;;21.60;101172.00;;;;5021560;28;20360;-72
2022/07/28 21:22:15;;;;;;;4.70;1.67;;;;;21.60;101174.00;;;;5020903;28;20970;-70
2022/07/28 21:25:02;;;;;;;2.03;1.70;;;;;21.50;101166.00;;;;5018163;28;20238;-72
2022/07/28 21:30:52;;;;;;;4.10;1.47;;;;;21.70;101159.00;;;;5018190;28;20339;-70
2022/07/28 21:33:38;;;;;;;3.33;1.80;;;;;21.70;101167.00;;;;5015368;28;20269;-72
2022/07/28 21:36:25;;;;;;;3.20;1.67;;;;;21.60;101169.00;;;;5020587;28;20384;-70
2022/07/28 21:39:12;;;;;;;2.67;1.60;;;;;21.40;101170.00;;;;5026041;28;20235;-72
2022/07/28 21:41:59;;;;;;;2.87;1.80;;;;;21.60;101167.00;;;;5017017;28;20369;-68
2022/07/28 21:44:45;;;;;;;4.33;1.80;;;;;21.50;101173.00;;;;5019094;28;20721;-71
2022/07/28 21:47:31;;;;;;;3.23;1.97;;;;;21.60;101164.00;;;;5026476;28;20226;-73
2022/07/28 21:50:20;;;;;;;5.47;1.77;;;;;21.40;101164.00;;;;5025767;28;20237;-72
2022/07/28 21:53:07;;;;;;;5.33;1.50;;;;;21.40;101168.00;;;;5025962;28;20245;-71
2022/07/28 21:55:55;;;;;;;4.57;1.70;;;;;21.50;101162.00;;;;5024415;28;20246;-71
2022/07/28 21:58:43;;;;;;;2.20;1.57;;;;;21.30;101172.00;;;;5022917;28;20239;-71
2022/07/28 22:01:29;;;;;;;4.30;1.50;;;;;21.40;101172.00;;;;5023713;28;20321;-71
2022/07/28 22:04:15;;;;;;;4.30;1.70;;;;;21.40;101172.00;;;;5025157;28;20240;-71
2022/07/28 22:07:03;;;;;;;3.33;1.77;;;;;21.40;101173.00;;;;5023498;28;20241;-71
2022/07/28 22:09:49;;;;;;;4.23;1.60;;;;;21.30;101171.00;;;;5023276;28;20834;-70
2022/07/28 22:12:36;;;;;;;1.97;1.63;;;;;21.30;101162.00;;;;5017877;28;20715;-71
2022/07/28 22:15:23;;;;;;;2.23;1.70;;;;;21.30;101166.00;;;;5021316;28;20238;-71
2022/07/28 22:18:09;;;;;;;4.50;1.67;;;;;21.30;101162.00;;;;5030680;28;21007;-72
2022/07/28 22:21:02;;;;;;;4.77;1.80;;;;;21.20;101165.00;;;;5021496;28;20229;-70
2022/07/28 22:23:48;;;;;;;4.80;1.80;;;;;21.30;101160.00;;;;5020313;28;20249;-70
2022/07/28 22:26:34;;;;;;;4.03;1.50;;;;;21.30;101166.00;;;;5024621;28;20759;-71
2022/07/28 22:29:22;;;;;;;8.17;1.63;;;;;21.30;101164.00;;;;5013970;28;20249;-67
2022/07/28 22:32:08;;;;;;;2.50;1.33;;;;;21.30;101168.00;;;;5028112;28;20230;-70
2022/07/28 22:34:55;;;;;;;5.77;1.60;;;;;21.20;101172.00;;;;5029118;28;20229;-71
2022/07/28 22:37:41;;;;;;;2.67;1.50;;;;;21.20;101165.00;;;;5027992;28;20245;-71
2022/07/28 22:40:27;;;;;;;2.20;1.50;;;;;21.10;101171.00;;;;5014002;28;20615;-70
2022/07/28 22:43:13;;;;;;;3.27;1.60;;;;;21.10;101167.00;;;;5016338;28;20710;-69
2022/07/28 22:46:01;;;;;;;2.67;1.50;;;;;21.20;101161.00;;;;5023120;28;20241;-71
2022/07/28 22:48:47;;;;;;;1.73;1.50;;;;;21.00;101172.00;;;;5023611;28;20226;-72
2022/07/28 22:51:33;;;;;;;10.73;1.70;;;;;21.10;101164.00;;;;5024274;28;20372;-70
2022/07/28 22:54:20;;;;;;;2.07;1.40;;;;;21.00;101167.00;;;;5030901;28;20229;-71
2022/07/28 22:57:06;;;;;;;2.20;1.50;;;;;20.90;101161.00;;;;5026216;28;20304;-71
2022/07/28 22:59:53;;;;;;;4.13;1.50;;;;;21.00;101165.00;;;;5022270;28;20702;-71
2022/07/28 23:02:41;;;;;;;3.60;1.47;;;;;20.90;101163.00;;;;5018965;28;20237;-71
2022/07/28 23:05:27;;;;;;;1.83;1.43;;;;;20.80;101173.00;;;;5026911;28;20241;-70
2022/07/28 23:08:13;;;;;;;2.60;1.70;;;;;20.80;101167.00;;;;5025566;28;20329;-70
2022/07/28 23:10:59;;;;;;;3.50;1.60;;;;;20.70;101168.00;;;;5027555;28;20866;-69
2022/07/28 23:13:45;;;;;;;2.23;1.60;;;;;20.70;101171.00;;;;5024919;28;20225;-72
2022/07/28 23:16:32;;;;;;;1.43;1.33;;;;;20.80;101176.00;;;;5027295;28;20265;-70
2022/07/28 23:19:20;;;;;;;3.30;1.53;;;;;20.60;101166.00;;;;5026870;28;20295;-70
2022/07/28 23:22:06;;;;;;;2.20;1.40;;;;;20.70;101160.00;;;;5028099;28;20373;-68
2022/07/28 23:24:52;;;;;;;4.00;1.57;;;;;20.70;101164.00;;;;5020644;28;20281;-70
2022/07/28 23:27:39;;;;;;;2.63;1.80;;;;;20.60;101159.00;;;;5030680;28;20713;-70
2022/07/28 23:30:25;;;;;;;1.60;1.50;;;;;20.60;101147.00;;;;5029146;28;20253;-70
2022/07/28 23:33:11;;;;;;;4.43;1.60;;;;;20.50;101154.00;;;;5032611;28;20236;-71
2022/07/28 23:36:19;;;;;;;2.57;1.30;;;;;20.50;101151.00;;;;5030780;28;20240;-70
2022/07/28 23:39:13;;;;;;;2.73;1.40;;;;;20.40;101154.00;;;;5025536;28;20226;-71
2022/07/28 23:42:00;;;;;;;3.80;1.80;;;;;20.40;101152.00;;;;5023386;28;20252;-71
2022/07/28 23:44:46;;;;;;;3.87;1.60;;;;;20.30;101148.00;;;;5021727;28;20311;-70
2022/07/28 23:47:33;;;;;;;5.73;1.57;;;;;20.40;101151.00;;;;5028287;28;20605;-71
2022/07/28 23:50:19;;;;;;;2.80;1.40;;;;;20.30;101143.00;;;;5027742;28;20237;-71
2022/07/28 23:53:07;;;;;;;3.70;1.50;;;;;20.40;101142.00;;;;5027540;28;20236;-71
2022/07/28 23:55:53;;;;;;;2.90;1.50;;;;;20.20;101150.00;;;;5016728;28;20333;-71
2022/07/28 23:58:40;;;;;;;1.83;1.50;;;;;20.30;101136.00;;;;5025944;28;20233;-70
